Time;durP1;ratioP1;P1;durP2;ratioP2;P2;SDS_P1;SDS_P2;PMS_P1;PMS_P2;Temp;Humidity;BMP_temperature;BMP_pressure;BME280_temperature;BME280_humidity;BME280_pressure;Samples;Min_cycle;Max_cycle;Signal;HPM_P1;HPM_P2
2023/04/09 00:02:21;;;;;;;12.73;11.43;;;5.10;99.90;;;;;;5055065;28;20243;-81
2023/04/09 00:04:51;;;;;;;12.85;10.88;;;5.20;99.90;;;;;;5055188;28;20206;-81
2023/04/09 00:07:19;;;;;;;13.57;11.52;;;5.20;99.90;;;;;;5054795;28;20202;-81
2023/04/09 00:09:48;;;;;;;12.27;11.00;;;5.20;99.90;;;;;;5055392;28;20213;-81
2023/04/09 00:12:16;;;;;;;10.65;9.65;;;5.10;99.90;;;;;;5055440;28;20234;-82
2023/04/09 00:14:44;;;;;;;16.17;11.32;;;5.10;99.90;;;;;;5054906;28;20230;-82
2023/04/09 00:17:12;;;;;;;13.73;11.85;;;5.10;99.90;;;;;;5054305;28;20209;-82
2023/04/09 00:19:40;;;;;;;11.98;10.77;;;5.10;99.90;;;;;;5055072;28;20208;-82
2023/04/09 00:22:10;;;;;;;12.23;10.98;;;5.10;99.90;;;;;;5054879;28;20232;-82
2023/04/09 00:24:39;;;;;;;12.10;10.93;;;5.10;99.90;;;;;;5055028;28;20205;-82
2023/04/09 00:27:07;;;;;;;13.25;11.95;;;5.00;99.90;;;;;;5054420;28;20214;-82
2023/04/09 00:29:35;;;;;;;12.80;11.50;;;5.00;99.90;;;;;;5054185;28;20284;-82
2023/04/09 00:32:04;;;;;;;13.00;11.60;;;5.00;99.90;;;;;;5054696;28;20233;-82
2023/04/09 00:34:32;;;;;;;11.50;10.38;;;5.00;99.90;;;;;;5054368;28;20313;-82
2023/04/09 00:37:00;;;;;;;12.20;10.93;;;5.00;99.90;;;;;;5054494;28;20206;-82
2023/04/09 00:39:30;;;;;;;12.40;11.10;;;5.00;99.90;;;;;;5055092;28;20208;-81
2023/04/09 00:41:59;;;;;;;12.63;11.35;;;5.00;99.90;;;;;;5054417;28;20233;-81
2023/04/09 00:44:28;;;;;;;11.75;10.63;;;5.00;99.90;;;;;;5054958;28;20209;-81
2023/04/09 00:46:57;;;;;;;12.25;11.00;;;5.00;99.90;;;;;;5054509;28;20206;-81
2023/04/09 00:49:26;;;;;;;12.27;11.07;;;5.00;99.90;;;;;;5054596;28;20209;-81
2023/04/09 00:51:54;;;;;;;11.20;10.10;;;5.00;99.90;;;;;;5054288;28;20236;-81
2023/04/09 00:54:23;;;;;;;16.80;11.40;;;5.00;99.90;;;;;;5054250;28;20367;-81
2023/04/09 00:56:53;;;;;;;11.63;10.52;;;5.00;99.90;;;;;;5052775;28;20217;-81
2023/04/09 00:59:24;;;;;;;9.82;8.82;;;4.90;99.90;;;;;;5054312;28;20209;-81
2023/04/09 01:01:53;;;;;;;11.23;9.93;;;4.90;99.90;;;;;;5054220;28;20238;-81
2023/04/09 01:04:22;;;;;;;9.68;8.70;;;4.90;99.90;;;;;;5054359;28;20247;-81
2023/04/09 01:06:53;;;;;;;9.50;8.57;;;4.90;99.90;;;;;;5053515;28;20198;-81
2023/04/09 01:09:30;;;;;;;9.82;8.93;;;4.90;99.90;;;;;;5054098;28;20213;-81
2023/04/09 01:12:12;;;;;;;9.73;8.82;;;4.90;99.90;;;;;;5054335;28;20256;-81
2023/04/09 01:14:49;;;;;;;10.63;9.63;;;4.90;99.90;;;;;;5053775;28;20234;-81
2023/04/09 01:17:24;;;;;;;14.20;9.80;;;4.90;99.90;;;;;;5053724;28;20235;-81
2023/04/09 01:20:02;;;;;;;9.93;9.02;;;4.90;99.90;;;;;;5053511;28;20201;-81
2023/04/09 01:22:39;;;;;;;11.20;10.15;;;4.90;99.90;;;;;;5053836;28;20295;-81
2023/04/09 01:25:17;;;;;;;10.23;9.18;;;4.90;99.90;;;;;;5054164;28;20225;-82
2023/04/09 01:27:56;;;;;;;10.00;9.10;;;4.90;99.90;;;;;;5053428;28;20210;-81
2023/04/09 01:30:28;;;;;;;11.50;10.30;;;4.90;99.90;;;;;;5054027;28;20216;-81
2023/04/09 01:32:58;;;;;;;11.77;10.32;;;4.90;99.90;;;;;;5053676;28;20225;-81
2023/04/09 01:35:28;;;;;;;11.60;10.50;;;4.90;99.90;;;;;;5053612;28;20226;-81
2023/04/09 01:37:58;;;;;;;8.80;8.00;;;4.80;99.90;;;;;;5053010;28;20356;-81
2023/04/09 01:40:26;;;;;;;9.18;8.35;;;4.80;99.90;;;;;;5053521;28;20212;-81
2023/04/09 01:42:55;;;;;;;10.25;8.80;;;4.80;99.90;;;;;;5053601;28;20239;-82
2023/04/09 01:45:25;;;;;;;11.40;10.23;;;4.80;99.90;;;;;;5053444;28;20209;-82
2023/04/09 01:47:56;;;;;;;8.93;8.13;;;4.80;99.90;;;;;;5053435;28;20284;-82
2023/04/09 01:50:24;;;;;;;10.35;9.35;;;4.80;99.90;;;;;;5053801;28;20259;-81
2023/04/09 01:52:52;;;;;;;10.20;9.27;;;4.80;99.90;;;;;;5053212;28;20236;-81
2023/04/09 01:55:21;;;;;;;9.52;8.65;;;4.80;99.90;;;;;;5053328;28;20229;-82
2023/04/09 01:57:49;;;;;;;9.20;8.35;;;4.80;99.90;;;;;;5052870;28;20202;-82
2023/04/09 02:00:17;;;;;;;9.60;8.70;;;4.80;99.90;;;;;;5053238;28;20210;-81
2023/04/09 02:02:55;;;;;;;9.93;9.02;;;4.80;99.90;;;;;;5053087;28;20240;-82
2023/04/09 02:05:28;;;;;;;10.02;9.00;;;4.80;99.90;;;;;;5053096;28;20244;-82
2023/04/09 02:07:58;;;;;;;9.48;8.65;;;4.80;99.90;;;;;;5051585;28;20212;-82
2023/04/09 02:10:30;;;;;;;10.13;9.23;;;4.80;99.90;;;;;;5053184;28;20205;-82
2023/04/09 02:13:02;;;;;;;11.35;9.05;;;4.70;99.90;;;;;;5052828;28;20233;-82
2023/04/09 02:15:34;;;;;;;11.30;10.18;;;4.70;99.90;;;;;;5052856;28;20308;-82
2023/04/09 02:18:04;;;;;;;10.70;9.63;;;4.80;99.90;;;;;;5052499;28;20265;-82
2023/04/09 02:20:33;;;;;;;11.30;10.10;;;4.80;99.90;;;;;;5053406;28;20214;-82
2023/04/09 02:23:01;;;;;;;11.60;10.45;;;4.80;99.90;;;;;;5053118;28;20206;-82
2023/04/09 02:25:30;;;;;;;10.23;9.20;;;4.70;99.90;;;;;;5052733;28;20208;-82
2023/04/09 02:27:58;;;;;;;9.95;9.00;;;4.70;99.90;;;;;;5052141;28;20214;-82
2023/04/09 02:30:26;;;;;;;13.55;10.85;;;4.60;99.90;;;;;;5053203;28;20205;-82
2023/04/09 02:32:58;;;;;;;13.82;10.18;;;4.60;99.90;;;;;;5052870;28;20239;-82
2023/04/09 02:35:31;;;;;;;13.60;10.55;;;4.60;99.90;;;;;;5052570;28;20218;-82
2023/04/09 02:37:59;;;;;;;11.13;9.98;;;4.50;99.90;;;;;;5052179;28;20206;-82
2023/04/09 02:40:27;;;;;;;10.77;9.68;;;4.50;99.90;;;;;;5052547;28;20214;-82
2023/04/09 02:42:56;;;;;;;11.32;8.90;;;4.50;99.90;;;;;;5052178;28;20229;-82
2023/04/09 02:45:24;;;;;;;11.48;10.10;;;4.40;99.90;;;;;;5052429;28;20222;-81
2023/04/09 02:47:52;;;;;;;11.60;10.07;;;4.40;99.90;;;;;;5052179;28;20213;-81
2023/04/09 02:50:21;;;;;;;10.93;9.88;;;4.40;99.90;;;;;;5052429;28;20241;-82
2023/04/09 02:52:51;;;;;;;11.95;10.75;;;4.40;99.90;;;;;;5052295;28;20230;-82
2023/04/09 02:55:20;;;;;;;11.60;10.43;;;4.40;99.90;;;;;;5052262;28;20300;-81
2023/04/09 02:57:48;;;;;;;13.13;10.88;;;4.40;99.90;;;;;;5051767;28;20212;-81
2023/04/09 03:00:16;;;;;;;11.30;10.20;;;4.40;99.90;;;;;;5052672;28;20208;-81
2023/04/09 03:02:44;;;;;;;11.13;10.10;;;4.40;99.90;;;;;;5052499;28;20325;-81
2023/04/09 03:05:13;;;;;;;10.82;9.82;;;4.50;99.90;;;;;;5052387;28;20240;-81
2023/04/09 03:07:46;;;;;;;12.48;10.82;;;4.50;99.90;;;;;;5051733;28;20210;-82
2023/04/09 03:10:19;;;;;;;11.10;10.00;;;4.40;99.90;;;;;;5052297;28;20288;-82
2023/04/09 03:12:48;;;;;;;10.50;9.50;;;4.50;99.90;;;;;;5052255;28;20226;-82
2023/04/09 03:15:16;;;;;;;11.73;10.63;;;4.50;99.90;;;;;;5052224;28;20205;-82
2023/04/09 03:17:44;;;;;;;11.75;10.60;;;4.50;99.90;;;;;;5051767;28;20212;-82
2023/04/09 03:20:12;;;;;;;10.95;9.85;;;4.50;99.90;;;;;;5054115;28;20297;-82
2023/04/09 03:22:40;;;;;;;12.63;11.43;;;4.50;99.90;;;;;;5055934;28;20236;-82
2023/04/09 03:25:09;;;;;;;10.95;9.85;;;4.50;99.90;;;;;;5056409;28;20255;-82
2023/04/09 03:27:39;;;;;;;11.15;10.00;;;4.50;99.90;;;;;;5055655;28;20220;-82
2023/04/09 03:30:08;;;;;;;11.38;10.18;;;4.50;99.90;;;;;;5055918;28;20202;-82
2023/04/09 03:32:37;;;;;;;12.18;10.73;;;4.60;99.90;;;;;;5055612;28;20221;-82
2023/04/09 03:35:06;;;;;;;12.27;9.85;;;4.60;99.90;;;;;;5056227;28;20205;-82
2023/04/09 03:37:34;;;;;;;11.32;10.20;;;4.60;99.90;;;;;;5055143;28;20333;-82
2023/04/09 03:40:03;;;;;;;10.63;9.65;;;4.50;99.90;;;;;;5055686;28;20208;-82
2023/04/09 03:42:31;;;;;;;11.73;10.57;;;4.50;99.90;;;;;;5055742;28;20225;-82
2023/04/09 03:45:00;;;;;;;12.13;11.00;;;4.50;99.90;;;;;;5055457;28;20214;-82
2023/04/09 03:47:29;;;;;;;11.10;10.10;;;4.50;99.90;;;;;;5055210;28;20206;-82
2023/04/09 03:49:58;;;;;;;12.85;10.88;;;4.50;99.90;;;;;;5055267;28;20240;-82
2023/04/09 03:52:26;;;;;;;10.75;9.63;;;4.60;99.90;;;;;;5055632;28;20232;-82
2023/04/09 03:54:54;;;;;;;16.63;12.10;;;4.60;99.90;;;;;;5055681;28;20214;-82
2023/04/09 03:57:23;;;;;;;19.15;11.38;;;4.50;99.90;;;;;;5054581;28;20237;-82
2023/04/09 03:59:51;;;;;;;11.43;10.15;;;4.50;99.90;;;;;;5055348;28;20214;-82
2023/04/09 04:02:21;;;;;;;13.65;10.70;;;4.60;99.90;;;;;;5055110;28;20233;-82
2023/04/09 04:04:49;;;;;;;13.10;11.10;;;4.60;99.90;;;;;;5055446;28;20237;-82
2023/04/09 04:07:17;;;;;;;12.00;10.88;;;4.60;99.90;;;;;;5054872;28;20218;-82
2023/04/09 04:09:45;;;;;;;11.35;10.27;;;4.60;99.90;;;;;;5055384;28;20202;-82
2023/04/09 04:12:14;;;;;;;12.45;11.23;;;4.60;99.90;;;;;;5055147;28;20228;-82
2023/04/09 04:14:42;;;;;;;12.07;10.88;;;4.60;99.90;;;;;;5054857;28;20216;-82
2023/04/09 04:17:11;;;;;;;12.80;10.90;;;4.60;99.90;;;;;;5054706;28;20226;-82
2023/04/09 04:19:40;;;;;;;10.93;9.82;;;4.60;99.90;;;;;;5055129;28;20213;-82
2023/04/09 04:22:08;;;;;;;13.05;11.05;;;4.60;99.90;;;;;;5054918;28;20230;-82
2023/04/09 04:24:37;;;;;;;12.23;9.70;;;4.70;99.90;;;;;;5055186;28;20214;-82
2023/04/09 04:27:05;;;;;;;10.68;9.63;;;4.70;99.90;;;;;;5054350;28;20205;-82
2023/04/09 04:29:33;;;;;;;13.00;11.68;;;4.70;99.90;;;;;;5055117;28;20210;-82
2023/04/09 04:32:02;;;;;;;15.13;11.52;;;4.70;99.90;;;;;;5053386;28;20230;-82
2023/04/09 04:34:30;;;;;;;12.95;11.18;;;4.70;99.90;;;;;;5055165;28;20228;-82
2023/04/09 04:36:59;;;;;;;10.27;9.38;;;4.70;99.90;;;;;;5054112;28;20222;-82
2023/04/09 04:39:28;;;;;;;12.23;11.00;;;4.70;99.90;;;;;;5054632;28;20209;-82
2023/04/09 04:41:56;;;;;;;12.05;10.90;;;4.70;99.90;;;;;;5054282;28;20226;-82
2023/04/09 04:44:25;;;;;;;12.93;11.25;;;4.80;99.90;;;;;;5054593;28;20213;-82
2023/04/09 04:46:53;;;;;;;12.77;11.45;;;4.80;99.90;;;;;;5054278;28;20201;-82
2023/04/09 04:49:21;;;;;;;12.50;11.10;;;4.80;99.90;;;;;;5054339;28;20213;-82
2023/04/09 04:51:49;;;;;;;12.27;10.48;;;4.80;99.90;;;;;;5054585;28;20225;-82
2023/04/09 04:54:19;;;;;;;11.32;10.23;;;4.80;99.90;;;;;;5054157;28;20216;-82
2023/04/09 04:56:47;;;;;;;12.07;10.48;;;4.80;99.90;;;;;;5053567;28;20222;-82
2023/04/09 04:59:15;;;;;;;11.93;10.77;;;4.80;99.90;;;;;;5054639;28;20217;-82
2023/04/09 05:01:44;;;;;;;10.90;9.88;;;4.80;99.90;;;;;;5054301;28;20234;-82
2023/04/09 05:04:12;;;;;;;12.15;10.93;;;4.80;99.90;;;;;;5054206;28;20244;-82
2023/04/09 05:06:40;;;;;;;12.05;10.90;;;4.80;99.90;;;;;;5053644;28;20209;-82
2023/04/09 05:09:08;;;;;;;10.77;9.73;;;4.80;99.90;;;;;;5054086;28;20201;-82
2023/04/09 05:11:38;;;;;;;14.98;12.65;;;4.80;99.90;;;;;;5054001;28;20234;-82
2023/04/09 05:14:06;;;;;;;13.52;12.07;;;4.90;99.90;;;;;;5054098;28;20212;-82
2023/04/09 05:16:35;;;;;;;11.73;10.63;;;4.90;99.90;;;;;;5053803;28;20287;-82
2023/04/09 05:19:04;;;;;;;12.48;11.07;;;4.90;99.90;;;;;;5053370;28;20209;-82
2023/04/09 05:21:32;;;;;;;17.88;13.15;;;5.00;99.90;;;;;;5053756;28;20226;-82
2023/04/09 05:24:00;;;;;;;11.10;10.00;;;5.00;99.90;;;;;;5054101;28;20212;-82
2023/04/09 05:26:29;;;;;;;12.40;10.98;;;5.00;99.90;;;;;;5053822;28;20206;-82
2023/04/09 05:28:58;;;;;;;14.18;12.70;;;5.00;99.90;;;;;;5053378;28;20213;-82
2023/04/09 05:31:27;;;;;;;11.77;10.60;;;5.10;99.90;;;;;;5053313;28;20241;-82
2023/04/09 05:33:55;;;;;;;13.55;12.15;;;5.10;99.90;;;;;;5053332;28;20201;-82
2023/04/09 05:36:23;;;;;;;12.93;11.77;;;5.10;99.90;;;;;;5053695;28;20220;-82
2023/04/09 05:38:51;;;;;;;13.07;11.80;;;5.10;99.90;;;;;;5053276;28;20216;-82
2023/04/09 05:41:20;;;;;;;13.98;12.57;;;5.20;99.90;;;;;;5053673;28;20305;-82
2023/04/09 05:43:48;;;;;;;12.35;11.13;;;5.20;99.90;;;;;;5053179;28;20202;-81
2023/04/09 05:46:18;;;;;;;14.43;12.82;;;5.20;99.90;;;;;;5053061;28;20241;-81
2023/04/09 05:48:46;;;;;;;12.40;11.20;;;5.20;99.90;;;;;;5053214;28;20205;-81
2023/04/09 05:51:15;;;;;;;13.10;10.85;;;5.20;99.90;;;;;;5053341;28;20236;-82
2023/04/09 05:53:44;;;;;;;15.18;12.65;;;5.20;99.90;;;;;;5053081;28;20261;-82
2023/04/09 05:56:16;;;;;;;13.25;12.02;;;5.20;99.90;;;;;;5053345;28;20209;-82
2023/04/09 05:58:44;;;;;;;14.57;13.00;;;5.20;99.90;;;;;;5052375;28;20226;-82
2023/04/09 06:01:12;;;;;;;12.75;11.43;;;5.20;99.90;;;;;;5053079;28;20252;-82
2023/04/09 06:03:43;;;;;;;14.00;11.35;;;5.30;99.90;;;;;;5053010;28;20202;-82
2023/04/09 06:06:11;;;;;;;14.52;12.23;;;5.30;99.90;;;;;;5053544;28;20219;-82
2023/04/09 06:08:40;;;;;;;16.60;13.43;;;5.30;99.90;;;;;;5052533;28;20208;-80
2023/04/09 06:11:09;;;;;;;12.70;11.50;;;5.40;99.90;;;;;;5052844;28;20316;-81
2023/04/09 06:13:39;;;;;;;13.02;11.75;;;5.40;99.90;;;;;;5052993;28;20220;-80
2023/04/09 06:16:08;;;;;;;14.45;11.85;;;5.50;99.90;;;;;;5052751;28;20237;-81
2023/04/09 06:18:41;;;;;;;13.93;12.45;;;5.60;99.90;;;;;;5052713;28;20256;-81
2023/04/09 06:21:12;;;;;;;12.93;11.63;;;5.60;99.90;;;;;;5053152;28;20229;-81
2023/04/09 06:23:40;;;;;;;13.10;11.40;;;5.70;99.90;;;;;;5052824;28;20263;-81
2023/04/09 06:26:09;;;;;;;12.77;10.88;;;5.70;99.90;;;;;;5052996;28;20210;-81
2023/04/09 06:28:37;;;;;;;11.23;10.18;;;5.70;99.90;;;;;;5052550;28;20216;-81
2023/04/09 06:31:06;;;;;;;12.77;11.57;;;5.80;99.90;;;;;;5052582;28;20257;-81
2023/04/09 06:33:34;;;;;;;12.23;10.95;;;5.80;99.90;;;;;;5052577;28;20228;-82
2023/04/09 06:36:02;;;;;;;13.30;11.98;;;5.80;99.90;;;;;;5052453;28;20202;-81
2023/04/09 06:38:32;;;;;;;12.98;11.60;;;5.90;99.90;;;;;;5051680;28;20234;-82
2023/04/09 06:41:00;;;;;;;12.43;11.32;;;6.00;99.90;;;;;;5052548;28;20228;-82
2023/04/09 06:43:28;;;;;;;13.68;12.25;;;6.00;99.90;;;;;;5052611;28;20205;-82
2023/04/09 06:45:56;;;;;;;14.35;12.88;;;6.00;99.90;;;;;;5052361;28;20222;-82
2023/04/09 06:48:25;;;;;;;15.10;12.88;;;6.00;99.90;;;;;;5051919;28;20240;-82
2023/04/09 06:50:53;;;;;;;13.68;12.27;;;6.10;99.90;;;;;;5052197;28;20209;-82
2023/04/09 06:53:22;;;;;;;14.57;12.60;;;6.20;99.90;;;;;;5052419;28;20202;-82
2023/04/09 06:55:51;;;;;;;16.92;14.32;;;6.30;99.90;;;;;;5055844;28;20205;-81
2023/04/09 06:58:22;;;;;;;16.40;14.18;;;6.40;99.90;;;;;;5056071;28;20228;-81
2023/04/09 07:00:50;;;;;;;21.73;15.65;;;6.40;99.90;;;;;;5056465;28;20205;-82
2023/04/09 07:03:18;;;;;;;15.40;13.90;;;6.50;99.90;;;;;;5056166;28;20210;-81
2023/04/09 07:05:47;;;;;;;17.10;15.40;;;6.50;99.90;;;;;;5056608;28;20202;-82
2023/04/09 07:08:15;;;;;;;16.77;15.07;;;6.70;99.90;;;;;;5056248;28;20206;-82
2023/04/09 07:10:46;;;;;;;15.43;13.95;;;6.80;99.90;;;;;;5056519;28;20205;-82
2023/04/09 07:13:16;;;;;;;14.73;13.13;;;6.80;99.90;;;;;;5056427;28;20205;-82
2023/04/09 07:15:44;;;;;;;13.93;12.52;;;6.90;99.90;;;;;;5056067;28;20269;-82
2023/04/09 07:18:12;;;;;;;17.33;14.60;;;7.00;99.90;;;;;;5055386;28;20229;-82
2023/04/09 07:20:41;;;;;;;15.00;13.48;;;7.10;99.90;;;;;;5056377;28;20216;-82
2023/04/09 07:23:09;;;;;;;17.33;14.30;;;7.20;99.90;;;;;;5056068;28;20209;-82
2023/04/09 07:25:37;;;;;;;15.73;13.77;;;7.20;99.90;;;;;;5056468;28;20217;-82
2023/04/09 07:28:06;;;;;;;14.05;12.63;;;7.30;99.90;;;;;;5055556;28;20232;-82
2023/04/09 07:30:35;;;;;;;19.00;14.75;;;7.40;99.90;;;;;;5055823;28;20210;-82
2023/04/09 07:33:04;;;;;;;16.27;13.68;;;7.50;99.90;;;;;;5056348;28;20206;-82
2023/04/09 07:35:33;;;;;;;15.25;13.63;;;7.50;99.90;;;;;;5056040;28;20198;-81
2023/04/09 07:38:01;;;;;;;21.63;16.30;;;7.60;99.90;;;;;;5055253;28;20228;-81
2023/04/09 07:40:30;;;;;;;17.23;15.43;;;7.60;99.90;;;;;;5055815;28;20244;-81
2023/04/09 07:42:58;;;;;;;16.05;13.88;;;7.60;99.90;;;;;;5055522;28;20236;-82
2023/04/09 07:45:26;;;;;;;16.25;14.18;;;7.60;99.90;;;;;;5055952;28;20213;-82
2023/04/09 07:47:56;;;;;;;16.88;14.60;;;7.50;99.90;;;;;;5055149;28;20209;-82
2023/04/09 07:50:25;;;;;;;15.43;13.98;;;7.40;99.90;;;;;;5056214;28;20287;-82
2023/04/09 07:52:53;;;;;;;16.25;14.48;;;7.30;99.90;;;;;;5055476;28;20232;-82
2023/04/09 07:55:21;;;;;;;24.00;15.63;;;7.30;99.90;;;;;;5055485;28;20220;-81
2023/04/09 07:57:50;;;;;;;16.92;14.48;;;7.30;99.90;;;;;;5054653;28;20209;-81
2023/04/09 08:00:19;;;;;;;17.63;14.02;;;7.30;99.90;;;;;;5055781;28;20213;-81
2023/04/09 08:02:47;;;;;;;17.27;15.43;;;7.30;99.90;;;;;;5055066;28;20237;-81
2023/04/09 08:05:21;;;;;;;16.75;14.55;;;7.40;99.90;;;;;;5055421;28;20206;-82
2023/04/09 08:07:51;;;;;;;15.85;14.18;;;7.40;99.90;;;;;;5054696;28;20256;-82
2023/04/09 08:10:19;;;;;;;16.35;13.55;;;7.50;99.90;;;;;;5054799;28;20216;-81
2023/04/09 08:12:48;;;;;;;16.15;14.50;;;7.50;99.90;;;;;;5055221;28;20232;-81
2023/04/09 08:15:17;;;;;;;14.80;13.30;;;7.50;99.90;;;;;;5055271;28;20212;-81
2023/04/09 08:17:45;;;;;;;16.02;14.48;;;7.60;99.90;;;;;;5054870;28;20210;-81
2023/04/09 08:20:15;;;;;;;;;;;7.50;99.90;;;;;;5055262;28;20006;-82
2023/04/09 08:22:45;;;;;;;16.00;14.35;;;7.60;99.90;;;;;;5055182;28;20054;-82
2023/04/09 08:25:15;;;;;;;17.25;15.45;;;7.50;99.90;;;;;;5055426;28;20208;-81
2023/04/09 08:27:43;;;;;;;16.33;14.68;;;7.60;99.90;;;;;;5054782;28;20292;-81
2023/04/09 08:30:12;;;;;;;14.77;13.18;;;7.60;99.90;;;;;;5055144;28;20212;-81
2023/04/09 08:32:40;;;;;;;15.60;13.88;;;7.60;99.90;;;;;;5054737;28;20248;-81
2023/04/09 08:35:10;;;;;;;17.40;15.07;;;7.60;99.90;;;;;;5054476;28;20205;-81
2023/04/09 08:37:38;;;;;;;15.52;13.93;;;7.70;99.90;;;;;;5053959;28;20210;-81
2023/04/09 08:40:10;;;;;;;21.27;14.48;;;7.80;99.90;;;;;;5054767;28;20252;-81
2023/04/09 08:42:44;;;;;;;17.90;16.10;;;7.90;99.90;;;;;;5054738;28;20320;-81
2023/04/09 08:45:13;;;;;;;16.17;14.35;;;8.00;99.90;;;;;;5054905;28;20243;-81
2023/04/09 08:47:42;;;;;;;17.48;15.75;;;8.20;99.90;;;;;;5053776;28;20222;-81
2023/04/09 08:50:11;;;;;;;18.52;16.63;;;8.40;99.90;;;;;;5054086;28;20230;-81
2023/04/09 08:52:40;;;;;;;14.68;12.77;;;8.40;99.90;;;;;;5054379;28;20226;-81
2023/04/09 08:55:12;;;;;;;14.07;12.65;;;8.50;99.90;;;;;;5054608;28;20223;-81
2023/04/09 08:57:41;;;;;;;14.57;13.18;;;8.50;99.90;;;;;;5053961;28;20208;-81
2023/04/09 09:00:10;;;;;;;14.43;12.88;;;8.40;99.90;;;;;;5054022;28;20221;-81
2023/04/09 09:02:39;;;;;;;13.95;12.57;;;8.30;99.90;;;;;;5054259;28;20233;-82
2023/04/09 09:05:08;;;;;;;13.43;12.23;;;8.30;99.90;;;;;;5054326;28;20252;-82
2023/04/09 09:07:36;;;;;;;16.00;14.38;;;8.20;99.90;;;;;;5054040;28;20252;-81
2023/04/09 09:10:04;;;;;;;15.18;13.60;;;8.20;99.90;;;;;;5054280;28;20206;-81
2023/04/09 09:12:36;;;;;;;11.73;10.73;;;8.20;99.90;;;;;;5054122;28;20225;-81
2023/04/09 09:15:06;;;;;;;11.32;10.32;;;8.30;99.90;;;;;;5054197;28;20233;-81
2023/04/09 09:17:53;;;;;;;13.57;10.00;;;8.30;99.90;;;;;;5052421;28;20201;-81
2023/04/09 09:20:22;;;;;;;10.05;9.05;;;8.30;99.90;;;;;;5053787;28;20228;-82
2023/04/09 09:22:52;;;;;;;10.25;7.93;;;8.40;99.90;;;;;;5053708;28;20238;-82
2023/04/09 09:25:24;;;;;;;13.40;8.40;;;8.40;99.90;;;;;;5054205;28;20285;-82
2023/04/09 09:27:55;;;;;;;10.05;9.05;;;8.40;99.90;;;;;;5053159;28;20269;-80
2023/04/09 09:30:25;;;;;;;9.55;8.65;;;8.50;99.90;;;;;;5053736;28;20201;-81
2023/04/09 09:32:54;;;;;;;9.45;8.45;;;8.60;99.90;;;;;;5053374;28;20222;-81
2023/04/09 09:35:23;;;;;;;8.90;8.13;;;8.70;99.90;;;;;;5053635;28;20216;-81
2023/04/09 09:38:03;;;;;;;8.60;7.80;;;8.90;99.90;;;;;;5053342;28;20202;-81
2023/04/09 09:40:31;;;;;;;9.18;7.90;;;8.90;99.90;;;;;;5053253;28;20236;-81
2023/04/09 09:43:01;;;;;;;9.07;8.15;;;9.00;99.90;;;;;;5053232;28;20236;-81
2023/04/09 09:45:30;;;;;;;8.80;8.00;;;9.20;99.90;;;;;;5053348;28;20216;-81
2023/04/09 09:47:58;;;;;;;10.93;9.10;;;9.40;99.90;;;;;;5052620;28;20217;-81
2023/04/09 09:50:30;;;;;;;9.45;8.02;;;9.60;99.90;;;;;;5053320;28;20217;-81
2023/04/09 09:53:03;;;;;;;8.52;7.72;;;9.90;99.90;;;;;;5053473;28;20395;-81
2023/04/09 09:55:33;;;;;;;8.85;8.00;;;10.20;99.90;;;;;;5053099;28;20206;-81
2023/04/09 09:58:10;;;;;;;7.53;6.93;;;10.40;99.90;;;;;;5052931;28;20205;-81
2023/04/09 10:00:40;;;;;;;11.63;10.40;;;10.50;99.90;;;;;;5052645;28;20278;-80
2023/04/09 10:03:14;;;;;;;9.48;8.57;;;10.80;99.90;;;;;;5052950;28;20218;-80
2023/04/09 10:05:44;;;;;;;9.65;8.18;;;11.00;99.90;;;;;;5053054;28;20205;-80
2023/04/09 10:08:13;;;;;;;9.60;8.65;;;11.20;99.90;;;;;;5052754;28;20202;-80
2023/04/09 10:10:42;;;;;;;11.05;9.55;;;11.60;99.90;;;;;;5052641;28;20124;-80
2023/04/09 10:13:16;;;;;;;8.50;7.75;;;12.00;99.90;;;;;;5052857;28;20227;-81
2023/04/09 10:15:45;;;;;;;9.10;8.35;;;12.30;99.90;;;;;;5052910;28;20218;-81
2023/04/09 10:18:14;;;;;;;11.30;9.02;;;12.20;99.90;;;;;;5052197;28;20056;-80
2023/04/09 10:20:50;;;;;;;10.00;9.02;;;12.30;99.90;;;;;;5052468;28;20229;-80
2023/04/09 10:23:27;;;;;;;10.27;9.27;;;12.30;99.90;;;;;;5052652;28;20217;-80
2023/04/09 10:25:55;;;;;;;10.35;9.15;;;12.40;99.90;;;;;;5053003;28;20209;-80
2023/04/09 10:28:25;;;;;;;10.07;9.13;;;12.30;99.90;;;;;;5052048;28;20216;-80
2023/04/09 10:30:54;;;;;;;10.55;9.18;;;12.20;99.90;;;;;;5052081;28;20210;-80
2023/04/09 10:33:25;;;;;;;12.65;9.10;;;12.40;99.90;;;;;;5052432;28;20202;-80
2023/04/09 10:35:54;;;;;;;10.07;9.10;;;12.60;99.90;;;;;;5052326;28;20215;-80
2023/04/09 10:38:36;;;;;;;10.02;8.50;;;12.70;99.90;;;;;;5051811;28;20228;-80
2023/04/09 10:41:10;;;;;;;8.80;8.00;;;12.90;99.90;;;;;;5052401;28;20308;-80
2023/04/09 10:43:40;;;;;;;9.77;8.85;;;13.10;99.90;;;;;;5052598;28;20212;-80
2023/04/09 10:46:26;;;;;;;12.07;9.57;;;13.10;99.90;;;;;;5052346;28;20210;-80
2023/04/09 10:49:12;;;;;;;10.15;8.95;;;13.20;99.90;;;;;;5051894;28;20216;-80
2023/04/09 10:51:43;;;;;;;8.90;8.05;;;13.40;99.90;;;;;;5052592;28;20229;-80
2023/04/09 10:54:36;;;;;;;12.93;8.23;;;13.40;99.90;;;;;;5052438;28;20213;-80
2023/04/09 10:57:13;;;;;;;8.63;7.80;;;13.30;99.90;;;;;;5051914;28;20213;-80
2023/04/09 10:59:44;;;;;;;14.35;8.38;;;13.20;99.90;;;;;;5052258;28;20221;-81
2023/04/09 11:02:58;;;;;;;9.80;8.82;;;13.30;99.90;;;;;;5052353;28;20235;-81
2023/04/09 11:05:32;;;;;;;10.77;9.70;;;13.40;99.90;;;;;;5052193;28;20237;-80
2023/04/09 11:08:09;;;;;;;18.80;11.43;;;13.40;99.90;;;;;;5052046;28;20213;-80
2023/04/09 11:10:38;;;;;;;9.77;8.85;;;13.60;99.90;;;;;;5052554;28;20232;-80
2023/04/09 11:13:07;;;;;;;11.52;10.25;;;13.50;99.90;;;;;;5052202;28;20293;-80
2023/04/09 11:15:37;;;;;;;13.63;8.88;;;13.60;99.90;;;;;;5051971;28;20197;-80
2023/04/09 11:18:08;;;;;;;8.88;8.02;;;13.50;99.90;;;;;;5051527;28;20197;-81
2023/04/09 11:20:38;;;;;;;10.90;9.45;;;13.20;99.90;;;;;;5052373;28;20255;-80
2023/04/09 11:23:07;;;;;;;9.73;8.85;;;12.90;99.90;;;;;;5051936;28;20202;-80
2023/04/09 11:25:35;;;;;;;13.40;9.88;;;12.70;99.90;;;;;;5052011;28;20210;-80
2023/04/09 11:28:05;;;;;;;9.82;8.82;;;12.50;99.90;;;;;;5051565;28;20212;-80
2023/04/09 11:30:34;;;;;;;9.75;8.75;;;12.30;99.90;;;;;;5051768;28;20198;-80
2023/04/09 11:33:04;;;;;;;10.40;9.40;;;12.10;99.90;;;;;;5052186;28;20225;-80
2023/04/09 11:35:34;;;;;;;14.75;10.07;;;11.80;99.90;;;;;;5051988;28;20210;-80
2023/04/09 11:38:06;;;;;;;12.98;9.48;;;11.70;99.90;;;;;;5051492;28;20210;-80
2023/04/09 11:40:35;;;;;;;9.15;8.23;;;11.60;99.90;;;;;;5052645;28;20229;-80
2023/04/09 11:43:03;;;;;;;9.18;8.25;;;11.50;99.90;;;;;;5055723;28;20214;-80
2023/04/09 11:45:32;;;;;;;10.50;9.38;;;11.50;99.90;;;;;;5055651;28;20209;-80
2023/04/09 11:48:04;;;;;;;13.25;10.02;;;11.50;99.90;;;;;;5055195;28;20216;-80
2023/04/09 11:50:33;;;;;;;11.40;10.20;;;11.50;99.90;;;;;;5055452;28;20217;-80
2023/04/09 11:53:01;;;;;;;11.30;9.93;;;11.60;99.90;;;;;;5055134;28;20230;-80
2023/04/09 11:55:30;;;;;;;12.15;10.55;;;11.60;99.90;;;;;;5055544;28;20212;-80
2023/04/09 11:58:03;;;;;;;12.05;7.57;;;11.70;99.90;;;;;;5054993;28;20212;-80
2023/04/09 12:00:32;;;;;;;9.38;8.10;;;11.80;99.90;;;;;;5055473;28;20229;-80
2023/04/09 12:03:02;;;;;;;8.95;8.13;;;11.90;99.90;;;;;;5055160;28;20237;-80
2023/04/09 12:05:34;;;;;;;9.35;8.23;;;12.00;99.90;;;;;;5055076;28;20213;-80
2023/04/09 12:08:05;;;;;;;10.25;7.63;;;12.00;99.90;;;;;;5055124;28;20217;-80
2023/04/09 12:10:35;;;;;;;7.05;6.32;;;12.10;99.90;;;;;;5055343;28;20194;-81
2023/04/09 12:13:05;;;;;;;7.60;5.78;;;12.20;99.90;;;;;;5055345;28;20202;-81
2023/04/09 12:15:35;;;;;;;7.97;6.90;;;12.30;99.90;;;;;;5054818;28;20262;-80
2023/04/09 12:18:07;;;;;;;7.03;6.43;;;12.40;99.90;;;;;;5054349;28;20259;-80
2023/04/09 12:20:39;;;;;;;7.70;6.90;;;12.40;99.90;;;;;;5055044;28;20225;-80
2023/04/09 12:23:10;;;;;;;7.97;7.18;;;12.40;99.90;;;;;;5054717;28;20202;-80
2023/04/09 12:25:40;;;;;;;9.18;8.27;;;12.50;99.90;;;;;;5055290;28;20206;-80
2023/04/09 12:28:09;;;;;;;8.88;8.18;;;12.60;99.90;;;;;;5054801;28;20202;-80
2023/04/09 12:30:38;;;;;;;10.93;7.53;;;12.70;99.90;;;;;;5054564;28;20216;-81
2023/04/09 12:33:06;;;;;;;8.48;7.70;;;12.80;99.90;;;;;;5054511;28;20213;-81
2023/04/09 12:35:39;;;;;;;7.65;6.95;;;12.90;99.90;;;;;;5054969;28;20296;-81
2023/04/09 12:38:08;;;;;;;9.02;8.07;;;12.90;99.90;;;;;;5054285;28;20209;-81
2023/04/09 12:40:39;;;;;;;6.75;6.00;;;12.90;99.90;;;;;;5054537;28;20301;-81
2023/04/09 12:43:07;;;;;;;9.45;6.70;;;12.80;99.90;;;;;;5054367;28;20237;-81
2023/04/09 12:45:35;;;;;;;7.38;6.68;;;12.70;99.90;;;;;;5054505;28;20201;-81
2023/04/09 12:48:04;;;;;;;10.88;7.15;;;12.70;99.90;;;;;;5053858;28;20205;-80
2023/04/09 12:50:33;;;;;;;7.85;6.97;;;12.70;99.90;;;;;;5054508;28;20205;-80
2023/04/09 12:53:03;;;;;;;8.68;7.78;;;12.60;99.90;;;;;;5053404;28;20241;-80
2023/04/09 12:55:31;;;;;;;8.63;7.72;;;12.60;99.90;;;;;;5054296;28;20220;-80